Terminal Aerodrome Forecast
Issued by NWS

Home | Current Version | Previous Version | Text Only | Print | Product List | Glossary On
Versions: 1 2 3 4 5 6 7 8 9 10 11 12 13
000
FTUS44 KCRP 082327
TAFALI
TAF
KALI 082327Z 0900/0924 35015G22KT P6SM -DZ OVC018
     FM090300 36015KT P6SM OVC020
     FM090600 36012KT P6SM OVC035
     FM091800 02008KT P6SM OVC050
      AMD NOT SKED=

USA.gov is the U.S. government's official web portal to all federal, state and local government web resources and services.